createdAt,value
2023-04-15T00:00:10.542Z,19.20
2023-04-15T00:03:02.573Z,19.20
2023-04-15T00:05:31.887Z,19.18
2023-04-15T00:08:01.494Z,19.17
2023-04-15T00:10:29.520Z,19.15
2023-04-15T00:12:57.689Z,19.16
2023-04-15T00:15:25.689Z,19.12
2023-04-15T00:17:54.022Z,19.11
2023-04-15T00:20:22.235Z,19.11
2023-04-15T00:22:50.445Z,19.09
2023-04-15T00:25:18.492Z,19.09
2023-04-15T00:27:46.577Z,19.10
2023-04-15T00:30:17.193Z,19.08
2023-04-15T00:32:45.382Z,19.03
2023-04-15T00:35:13.989Z,19.03
2023-04-15T00:37:44.225Z,19.02
2023-04-15T00:40:14.468Z,19.04
2023-04-15T00:42:42.472Z,19.01
2023-04-15T00:45:11.050Z,19.00
2023-04-15T00:47:39.718Z,18.98
2023-04-15T00:50:08.832Z,19.00
2023-04-15T00:52:37.412Z,18.95
2023-04-15T00:55:06.934Z,18.96
2023-04-15T00:57:35.716Z,18.96
2023-04-15T01:00:05.739Z,18.93
2023-04-15T01:02:34.902Z,18.94
2023-04-15T01:05:04.312Z,18.94
2023-04-15T01:07:32.412Z,18.92
2023-04-15T01:10:00.484Z,18.90
2023-04-15T01:12:28.647Z,18.91
2023-04-15T01:14:57.338Z,18.89
2023-04-15T01:17:25.635Z,18.88
2023-04-15T01:19:53.695Z,18.86
2023-04-15T01:22:22.371Z,18.86
2023-04-15T01:24:55.802Z,18.84
2023-04-15T01:27:23.939Z,18.84
2023-04-15T01:29:52.010Z,18.82
2023-04-15T01:32:20.647Z,18.83
2023-04-15T01:34:48.765Z,18.84
2023-04-15T01:37:17.015Z,18.81
2023-04-15T01:39:45.736Z,18.80
2023-04-15T01:42:13.805Z,18.80
2023-04-15T01:44:41.890Z,18.78
2023-04-15T01:47:13.118Z,18.78
2023-04-15T01:49:43.034Z,18.80
2023-04-15T01:52:11.103Z,18.77
2023-04-15T01:54:41.815Z,18.75
2023-04-15T01:57:10.124Z,18.76
2023-04-15T01:59:38.609Z,18.75
2023-04-15T02:02:06.666Z,18.75
2023-04-15T02:04:34.956Z,18.73
2023-04-15T02:07:03.000Z,18.70
2023-04-15T02:09:31.202Z,18.70
2023-04-15T02:11:59.575Z,18.70
2023-04-15T02:14:27.952Z,18.69
2023-04-15T02:16:55.970Z,18.70
2023-04-15T02:19:23.997Z,18.70
2023-04-15T02:21:51.939Z,18.69
2023-04-15T02:24:20.042Z,18.65
2023-04-15T02:26:48.008Z,18.65
2023-04-15T02:29:16.685Z,18.63
2023-04-15T02:31:45.819Z,18.61
2023-04-15T02:34:14.693Z,18.64
2023-04-15T02:36:47.761Z,18.61
2023-04-15T02:39:18.718Z,18.61
2023-04-15T02:41:52.113Z,18.57
2023-04-15T02:44:20.709Z,18.55
2023-04-15T02:46:52.626Z,18.56
2023-04-15T02:49:23.055Z,18.54
2023-04-15T02:51:51.973Z,18.53
2023-04-15T02:54:20.965Z,18.53
2023-04-15T02:56:50.271Z,18.51
2023-04-15T02:59:18.233Z,18.52
2023-04-15T03:01:46.381Z,18.49
2023-04-15T03:04:14.815Z,18.48
2023-04-15T03:06:43.163Z,18.44
2023-04-15T03:09:11.549Z,18.40
2023-04-15T03:11:42.229Z,18.41
2023-04-15T03:14:11.372Z,18.44
2023-04-15T03:16:42.303Z,18.47
2023-04-15T03:19:10.344Z,18.50
2023-04-15T03:21:39.939Z,18.55
2023-04-15T03:24:08.268Z,18.58
2023-04-15T03:26:37.061Z,18.61
2023-04-15T03:29:11.357Z,18.63
2023-04-15T03:31:41.914Z,18.68
2023-04-15T03:34:10.077Z,18.70
2023-04-15T03:36:38.682Z,18.73
2023-04-15T03:39:06.849Z,18.77
2023-04-15T03:41:34.779Z,18.81
2023-04-15T03:44:02.976Z,18.84
2023-04-15T03:46:30.984Z,18.86
2023-04-15T03:48:59.428Z,18.90
2023-04-15T03:51:27.597Z,18.94
2023-04-15T03:53:56.296Z,18.99
2023-04-15T03:56:24.986Z,19.01
2023-04-15T03:58:53.066Z,19.05
2023-04-15T04:01:21.402Z,19.09
2023-04-15T04:03:49.761Z,19.13
2023-04-15T04:06:18.084Z,19.17
2023-04-15T04:08:46.328Z,19.20
2023-04-15T04:11:14.258Z,19.24
2023-04-15T04:13:42.506Z,19.29
2023-04-15T04:16:11.315Z,19.30
2023-04-15T04:18:39.361Z,19.34
2023-04-15T04:21:07.747Z,19.37
2023-04-15T04:23:35.819Z,19.40
2023-04-15T04:26:03.780Z,19.43
2023-04-15T04:28:32.065Z,19.45
2023-04-15T04:31:00.151Z,19.49
2023-04-15T04:33:28.204Z,19.54
2023-04-15T04:35:56.386Z,19.56
2023-04-15T04:38:24.350Z,19.56
2023-04-15T04:40:52.622Z,19.60
2023-04-15T04:43:20.805Z,19.63
2023-04-15T04:45:48.800Z,19.64
2023-04-15T04:48:17.138Z,19.69
2023-04-15T04:50:45.728Z,19.73
2023-04-15T04:53:13.761Z,19.75
2023-04-15T04:55:42.682Z,19.78
2023-04-15T04:58:10.671Z,19.78
2023-04-15T05:00:39.137Z,19.80
2023-04-15T05:03:07.338Z,19.84
2023-04-15T05:05:37.239Z,19.85
2023-04-15T05:08:05.860Z,19.84
2023-04-15T05:10:33.887Z,19.85
2023-04-15T05:13:02.026Z,19.86
2023-04-15T05:15:30.163Z,19.88
2023-04-15T05:17:58.267Z,19.89
2023-04-15T05:20:26.555Z,19.91
2023-04-15T05:22:54.752Z,19.90
2023-04-15T05:25:23.133Z,19.91
2023-04-15T05:27:51.825Z,19.91
2023-04-15T05:30:19.766Z,19.90
2023-04-15T05:32:47.913Z,19.90
2023-04-15T05:35:16.553Z,19.92
2023-04-15T05:37:45.341Z,19.94
2023-04-15T05:40:13.515Z,19.93
2023-04-15T05:42:41.579Z,19.95
2023-04-15T05:45:10.272Z,19.93
2023-04-15T05:47:38.507Z,19.93
2023-04-15T05:50:07.548Z,19.92
2023-04-15T05:52:35.606Z,19.92
2023-04-15T05:55:03.604Z,19.93
2023-04-15T05:57:32.159Z,19.91
2023-04-15T06:00:00.353Z,19.90
2023-04-15T06:02:28.388Z,19.91
2023-04-15T06:04:57.913Z,19.92
2023-04-15T06:07:26.190Z,19.92
2023-04-15T06:09:54.134Z,19.93
2023-04-15T06:12:22.450Z,19.91
2023-04-15T06:14:50.387Z,19.92
2023-04-15T06:17:19.573Z,19.92
2023-04-15T06:19:47.888Z,19.91
2023-04-15T06:22:16.060Z,19.88
2023-04-15T06:24:43.958Z,19.88
2023-04-15T06:27:12.103Z,19.87
2023-04-15T06:29:40.168Z,19.86
2023-04-15T06:32:08.339Z,19.87
2023-04-15T06:34:36.631Z,19.85
2023-04-15T06:37:06.328Z,19.88
2023-04-15T06:39:34.812Z,19.89
2023-04-15T06:42:03.806Z,19.95
2023-04-15T06:44:33.789Z,19.95
2023-04-15T06:47:02.329Z,19.97
2023-04-15T06:49:30.476Z,20.02
2023-04-15T06:51:58.541Z,20.03
2023-04-15T06:54:26.639Z,20.03
2023-04-15T06:56:54.686Z,20.04
2023-04-15T06:59:22.867Z,20.04
2023-04-15T07:01:51.584Z,20.06
2023-04-15T07:04:20.696Z,20.05
2023-04-15T07:06:48.685Z,20.07
2023-04-15T07:09:16.687Z,20.08
2023-04-15T07:11:45.063Z,20.06
2023-04-15T07:14:13.245Z,20.07
2023-04-15T07:16:41.952Z,20.06
2023-04-15T07:19:10.212Z,20.07
2023-04-15T07:21:39.976Z,20.11
2023-04-15T07:24:10.682Z,20.09
2023-04-15T07:26:38.829Z,20.12
2023-04-15T07:29:07.412Z,20.14
2023-04-15T07:31:36.988Z,20.17
2023-04-15T07:34:05.400Z,20.21
2023-04-15T07:36:33.460Z,20.22
2023-04-15T07:39:03.960Z,20.24
2023-04-15T07:41:32.585Z,20.27
2023-04-15T07:44:00.664Z,20.32
2023-04-15T07:46:28.974Z,20.35
2023-04-15T07:48:57.515Z,20.39
2023-04-15T07:51:25.920Z,20.38
2023-04-15T07:53:55.190Z,20.44
2023-04-15T07:56:23.165Z,20.46
2023-04-15T07:58:51.760Z,20.47
2023-04-15T08:01:19.836Z,20.50
2023-04-15T08:03:48.742Z,20.52
2023-04-15T08:06:17.303Z,20.53
2023-04-15T08:08:45.374Z,20.53
2023-04-15T08:11:13.531Z,20.58
2023-04-15T08:13:41.603Z,20.61
2023-04-15T08:16:27.708Z,20.65
2023-04-15T08:18:56.282Z,20.65
2023-04-15T08:21:25.179Z,20.68
2023-04-15T08:23:53.449Z,20.69
2023-04-15T08:26:21.827Z,20.69
2023-04-15T08:28:50.310Z,20.73
2023-04-15T08:31:18.953Z,20.73
2023-04-15T08:33:47.077Z,20.74
2023-04-15T08:36:15.249Z,20.77
2023-04-15T08:38:44.773Z,20.79
2023-04-15T08:41:21.648Z,20.82
2023-04-15T08:43:53.816Z,20.83
2023-04-15T08:46:21.963Z,20.83
2023-04-15T08:48:50.373Z,20.84
2023-04-15T08:51:18.734Z,20.84
2023-04-15T08:53:47.618Z,20.84
2023-04-15T08:56:17.096Z,20.86
2023-04-15T08:58:45.798Z,20.87
2023-04-15T09:01:13.844Z,20.85
2023-04-15T09:03:42.229Z,20.91
2023-04-15T09:06:11.872Z,20.90
2023-04-15T09:08:39.846Z,20.91
2023-04-15T09:11:08.630Z,20.93
2023-04-15T09:13:37.211Z,20.93
2023-04-15T09:16:06.372Z,20.96
2023-04-15T09:18:35.816Z,20.97
2023-04-15T09:21:06.121Z,20.98
2023-04-15T09:23:34.512Z,21.02
2023-04-15T09:26:03.419Z,21.05
2023-04-15T09:28:31.580Z,21.09
2023-04-15T09:31:00.269Z,21.12
2023-04-15T09:33:29.587Z,21.15
2023-04-15T09:36:07.583Z,21.20
2023-04-15T09:38:36.361Z,21.21
2023-04-15T09:41:04.905Z,21.25
2023-04-15T09:43:39.894Z,21.28
2023-04-15T09:46:08.106Z,21.30
2023-04-15T09:48:36.530Z,21.34
2023-04-15T09:51:04.473Z,21.36
2023-04-15T09:53:34.947Z,21.40
2023-04-15T09:56:03.411Z,21.42
2023-04-15T09:58:33.577Z,21.46
2023-04-15T10:01:04.618Z,21.48
2023-04-15T10:03:37.622Z,21.49
2023-04-15T10:06:05.960Z,21.51
2023-04-15T10:08:35.142Z,21.52
2023-04-15T10:11:03.525Z,21.53
2023-04-15T10:13:33.495Z,21.57
2023-04-15T10:16:06.667Z,21.59
2023-04-15T10:18:35.917Z,21.58
2023-04-15T10:21:04.102Z,21.62
2023-04-15T10:23:32.695Z,21.66
2023-04-15T10:26:00.758Z,21.68
2023-04-15T10:28:29.035Z,21.71
2023-04-15T10:30:58.061Z,21.72
2023-04-15T10:33:26.313Z,21.75
2023-04-15T10:35:55.762Z,21.79
2023-04-15T10:38:43.543Z,21.82
2023-04-15T10:41:24.333Z,21.83
2023-04-15T10:43:53.174Z,21.83
2023-04-15T10:46:41.284Z,21.83
2023-04-15T10:49:13.715Z,21.86
2023-04-15T10:51:52.036Z,21.89
2023-04-15T10:54:26.152Z,21.92
2023-04-15T10:57:06.816Z,21.96
2023-04-15T10:59:59.265Z,21.94
2023-04-15T11:02:41.400Z,21.96
2023-04-15T11:05:13.630Z,21.97
2023-04-15T11:07:42.105Z,22.04
2023-04-15T11:10:36.485Z,22.07
2023-04-15T11:13:06.530Z,22.08
2023-04-15T11:15:34.680Z,22.10
2023-04-15T11:18:18.114Z,22.15
2023-04-15T11:20:54.608Z,22.17
2023-04-15T11:23:30.417Z,22.19
2023-04-15T11:25:59.562Z,22.23
2023-04-15T11:28:31.113Z,22.28
2023-04-15T11:31:00.860Z,22.30
2023-04-15T11:33:28.973Z,22.33
2023-04-15T11:35:56.964Z,22.31
2023-04-15T11:38:25.005Z,22.32
2023-04-15T11:40:52.971Z,22.33
2023-04-15T11:43:22.279Z,22.34
2023-04-15T11:45:58.125Z,22.37
2023-04-15T11:48:33.551Z,22.39
2023-04-15T11:51:02.993Z,22.40
2023-04-15T11:53:41.428Z,22.41
2023-04-15T11:56:10.266Z,22.41
2023-04-15T11:58:39.357Z,22.37
2023-04-15T12:01:07.559Z,22.38
2023-04-15T12:03:43.540Z,22.36
2023-04-15T12:06:22.034Z,22.33
2023-04-15T12:08:55.910Z,22.30
2023-04-15T12:11:27.187Z,22.26
2023-04-15T12:13:57.207Z,22.28
2023-04-15T12:16:25.379Z,22.28
2023-04-15T12:18:59.013Z,22.27
2023-04-15T12:21:28.285Z,22.28
2023-04-15T12:23:57.484Z,22.30
2023-04-15T12:26:35.066Z,22.28
2023-04-15T12:29:04.338Z,22.30
2023-04-15T12:31:32.732Z,22.33
2023-04-15T12:34:01.343Z,22.35
2023-04-15T12:36:36.581Z,22.32
2023-04-15T12:39:05.476Z,22.33
2023-04-15T12:41:33.724Z,22.35
2023-04-15T12:44:02.003Z,22.37
2023-04-15T12:46:30.376Z,22.39
2023-04-15T12:48:58.688Z,22.38
2023-04-15T12:51:27.572Z,22.38
2023-04-15T12:53:55.550Z,22.39
2023-04-15T12:56:24.126Z,22.38
2023-04-15T12:58:52.129Z,22.40
2023-04-15T13:01:20.209Z,22.41
2023-04-15T13:03:48.684Z,22.41
2023-04-15T13:06:17.338Z,22.43
2023-04-15T13:08:57.268Z,22.42
2023-04-15T13:11:26.275Z,22.43
2023-04-15T13:13:54.150Z,22.44
2023-04-15T13:16:22.354Z,22.46
2023-04-15T13:18:51.012Z,22.46
2023-04-15T13:21:19.794Z,22.48
2023-04-15T13:23:49.387Z,22.47
2023-04-15T13:26:18.299Z,22.45
2023-04-15T13:28:46.357Z,22.47
2023-04-15T13:31:14.537Z,22.46
2023-04-15T13:33:42.828Z,22.43
2023-04-15T13:36:11.511Z,22.43
2023-04-15T13:38:39.573Z,22.42
2023-04-15T13:41:07.843Z,22.42
2023-04-15T13:43:35.817Z,22.40
2023-04-15T13:46:04.263Z,22.39
2023-04-15T13:48:32.366Z,22.40
2023-04-15T13:51:00.540Z,22.39
2023-04-15T13:53:38.513Z,22.37
2023-04-15T13:56:08.185Z,22.37
2023-04-15T13:58:36.981Z,22.40
2023-04-15T14:01:06.981Z,22.39
2023-04-15T14:03:36.468Z,22.39
2023-04-15T14:06:06.009Z,22.43
2023-04-15T14:08:34.148Z,22.42
2023-04-15T14:11:02.345Z,22.38
2023-04-15T14:13:30.376Z,22.39
2023-04-15T14:15:58.361Z,22.34
2023-04-15T14:18:26.546Z,22.31
2023-04-15T14:20:54.702Z,22.29
2023-04-15T14:23:23.523Z,22.25
2023-04-15T14:25:52.384Z,22.21
2023-04-15T14:28:20.457Z,22.19
2023-04-15T14:30:48.491Z,22.17
2023-04-15T14:33:16.608Z,22.15
2023-04-15T14:35:44.539Z,22.12
2023-04-15T14:38:12.508Z,22.11
2023-04-15T14:40:41.648Z,22.08
2023-04-15T14:43:09.816Z,22.06
2023-04-15T14:45:39.501Z,22.04
2023-04-15T14:48:10.364Z,22.04
2023-04-15T14:50:38.955Z,22.00
2023-04-15T14:53:07.011Z,22.02
2023-04-15T14:55:35.001Z,21.99
2023-04-15T14:58:03.366Z,22.00
2023-04-15T15:00:31.641Z,21.98
2023-04-15T15:03:00.097Z,21.95
2023-04-15T15:05:28.547Z,21.91
2023-04-15T15:07:56.746Z,21.87
2023-04-15T15:10:33.208Z,21.83
2023-04-15T15:13:12.887Z,21.80
2023-04-15T15:15:41.310Z,21.76
2023-04-15T15:18:09.517Z,21.74
2023-04-15T15:20:37.725Z,21.72
2023-04-15T15:23:05.869Z,21.65
2023-04-15T15:25:33.869Z,21.60
2023-04-15T15:28:01.750Z,21.56
2023-04-15T15:30:30.736Z,21.56
2023-04-15T15:32:58.798Z,21.50
2023-04-15T15:35:26.874Z,21.52
2023-04-15T15:37:55.214Z,21.46
2023-04-15T15:40:23.523Z,21.42
2023-04-15T15:42:51.898Z,21.44
2023-04-15T15:45:19.977Z,21.43
2023-04-15T15:47:48.082Z,21.42
2023-04-15T15:50:16.113Z,21.42
2023-04-15T15:52:44.414Z,21.43
2023-04-15T15:55:12.486Z,21.40
2023-04-15T15:57:40.633Z,21.39
2023-04-15T16:00:12.846Z,21.33
2023-04-15T16:05:12.078Z,21.30
2023-04-15T16:07:40.296Z,21.31
2023-04-15T16:10:09.216Z,21.29
2023-04-15T16:12:37.368Z,21.29
2023-04-15T16:15:06.362Z,21.25
2023-04-15T16:17:34.455Z,21.26
2023-04-15T16:20:05.642Z,21.24
2023-04-15T16:22:34.782Z,21.27
2023-04-15T16:25:03.248Z,21.23
2023-04-15T16:27:31.534Z,21.24
2023-04-15T16:29:59.606Z,21.24
2023-04-15T16:32:27.932Z,21.23
2023-04-15T16:34:56.978Z,21.21
2023-04-15T16:37:25.149Z,21.19
2023-04-15T16:39:53.222Z,21.23
2023-04-15T16:42:21.183Z,21.22
2023-04-15T16:44:49.264Z,21.19
2023-04-15T16:47:17.534Z,21.18
2023-04-15T16:49:45.716Z,21.15
2023-04-15T16:52:13.890Z,21.14
2023-04-15T16:54:41.952Z,21.14
2023-04-15T16:57:09.826Z,21.13
2023-04-15T16:59:38.123Z,21.09
2023-04-15T17:02:06.217Z,21.07
2023-04-15T17:04:35.262Z,21.02
2023-04-15T17:07:04.160Z,21.01
2023-04-15T17:09:32.737Z,21.00
2023-04-15T17:12:01.101Z,20.98
2023-04-15T17:14:29.193Z,20.97
2023-04-15T17:16:57.276Z,20.96
2023-04-15T17:19:27.072Z,20.94
2023-04-15T17:21:55.268Z,20.88
2023-04-15T17:24:23.844Z,20.86
2023-04-15T17:26:53.006Z,20.83
2023-04-15T17:29:21.106Z,20.81
2023-04-15T17:31:49.141Z,20.79
2023-04-15T17:34:17.192Z,20.76
2023-04-15T17:36:45.242Z,20.74
2023-04-15T17:39:15.236Z,20.71
2023-04-15T17:41:43.510Z,20.68
2023-04-15T17:44:11.402Z,20.67
2023-04-15T17:46:39.634Z,20.65
2023-04-15T17:49:08.029Z,20.63
2023-04-15T17:51:36.111Z,20.60
2023-04-15T17:54:10.732Z,20.57
2023-04-15T17:56:38.697Z,20.52
2023-04-15T17:59:08.930Z,20.51
2023-04-15T18:01:37.138Z,20.48
2023-04-15T18:04:05.825Z,20.46
2023-04-15T18:06:35.058Z,20.44
2023-04-15T18:09:04.109Z,20.37
2023-04-15T18:11:33.502Z,20.35
2023-04-15T18:14:02.812Z,20.37
2023-04-15T18:16:31.311Z,20.37
2023-04-15T18:18:59.739Z,20.42
2023-04-15T18:21:28.117Z,20.42
2023-04-15T18:23:56.201Z,20.45
2023-04-15T18:26:24.266Z,20.48
2023-04-15T18:28:52.336Z,20.51
2023-04-15T18:31:20.321Z,20.53
2023-04-15T18:33:48.358Z,20.54
2023-04-15T18:36:16.353Z,20.55
2023-04-15T18:38:47.591Z,20.58
2023-04-15T18:41:15.884Z,20.58
2023-04-15T18:43:43.780Z,20.61
2023-04-15T18:46:13.849Z,20.59
2023-04-15T18:48:42.259Z,20.63
2023-04-15T18:51:10.421Z,20.63
2023-04-15T18:53:38.895Z,20.63
2023-04-15T18:56:07.393Z,20.63
2023-04-15T18:59:23.038Z,20.64
2023-04-15T19:01:23.603Z,20.63
2023-04-15T19:03:51.564Z,20.67
2023-04-15T19:06:19.638Z,20.66
2023-04-15T19:08:47.538Z,20.68
2023-04-15T19:11:16.005Z,20.70
2023-04-15T19:13:44.054Z,20.70
2023-04-15T19:16:12.153Z,20.68
2023-04-15T19:18:40.070Z,20.70
2023-04-15T19:21:08.182Z,20.71
2023-04-15T19:23:36.236Z,20.70
2023-04-15T19:26:04.204Z,20.70
2023-04-15T19:28:32.253Z,20.70
2023-04-15T19:31:00.153Z,20.68
2023-04-15T19:33:31.404Z,20.70
2023-04-15T19:36:01.508Z,20.69
2023-04-15T19:38:30.591Z,20.68
2023-04-15T19:40:59.092Z,20.69
2023-04-15T19:43:27.365Z,20.69
2023-04-15T19:45:55.853Z,20.69
2023-04-15T19:48:24.715Z,20.68
2023-04-15T19:50:53.120Z,20.69
2023-04-15T19:53:21.181Z,20.69
2023-04-15T19:55:49.166Z,20.67
2023-04-15T19:58:17.048Z,20.66
2023-04-15T20:00:45.093Z,20.65
2023-04-15T20:03:13.302Z,20.65
2023-04-15T20:05:41.654Z,20.61
2023-04-15T20:08:09.934Z,20.60
2023-04-15T20:10:38.115Z,20.60
2023-04-15T20:13:06.277Z,20.59
2023-04-15T20:15:34.458Z,20.56
2023-04-15T20:18:02.873Z,20.56
2023-04-15T20:20:31.039Z,20.55
2023-04-15T20:22:59.171Z,20.53
2023-04-15T20:25:27.239Z,20.53
2023-04-15T20:27:55.520Z,20.53
2023-04-15T20:30:23.791Z,20.49
2023-04-15T20:32:52.201Z,20.48
2023-04-15T20:35:20.551Z,20.47
2023-04-15T20:37:49.160Z,20.46
2023-04-15T20:40:17.283Z,20.46
2023-04-15T20:42:45.598Z,20.45
2023-04-15T20:45:13.737Z,20.42
2023-04-15T20:47:41.861Z,20.42
2023-04-15T20:50:10.754Z,20.42
2023-04-15T20:52:39.535Z,20.40
2023-04-15T20:55:08.321Z,20.39
2023-04-15T20:57:36.374Z,20.39
2023-04-15T21:00:05.338Z,20.38
2023-04-15T21:02:33.508Z,20.35
2023-04-15T21:05:01.935Z,20.35
2023-04-15T21:07:30.115Z,20.38
2023-04-15T21:09:58.283Z,20.38
2023-04-15T21:12:26.353Z,20.36
2023-04-15T21:14:54.731Z,20.35
2023-04-15T21:17:22.870Z,20.35
2023-04-15T21:19:50.899Z,20.37
2023-04-15T21:22:18.953Z,20.34
2023-04-15T21:24:46.907Z,20.32
2023-04-15T21:27:15.088Z,20.31
2023-04-15T21:29:43.054Z,20.29
2023-04-15T21:32:11.238Z,20.27
2023-04-15T21:34:39.323Z,20.25
2023-04-15T21:37:07.886Z,20.26
2023-04-15T21:39:36.164Z,20.24
2023-04-15T21:42:04.277Z,20.21
2023-04-15T21:44:32.357Z,20.20
2023-04-15T21:47:00.502Z,20.17
2023-04-15T21:49:28.658Z,20.15
2023-04-15T21:52:01.361Z,20.15
2023-04-15T21:54:31.160Z,20.14
2023-04-15T21:56:59.522Z,20.12
2023-04-15T21:59:27.492Z,20.12
2023-04-15T22:01:55.805Z,20.10
2023-04-15T22:09:34.520Z,20.04
2023-04-15T22:14:37.228Z,20.02
2023-04-15T22:17:05.253Z,19.97
2023-04-15T22:19:33.470Z,19.97
2023-04-15T22:22:01.849Z,19.96
2023-04-15T22:24:40.207Z,19.95
2023-04-15T22:27:08.636Z,19.93
2023-04-15T22:32:09.712Z,19.94
2023-04-15T22:34:37.683Z,19.89
2023-04-15T22:37:06.560Z,19.86
2023-04-15T22:39:34.837Z,19.86
2023-04-15T22:42:03.416Z,19.81
2023-04-15T22:44:31.431Z,19.80
2023-04-15T22:46:59.555Z,19.78
2023-04-15T22:49:27.840Z,19.76
2023-04-15T22:51:56.241Z,19.74
2023-04-15T22:54:24.796Z,19.74
2023-04-15T22:56:52.871Z,19.70
2023-04-15T22:59:21.010Z,19.68
2023-04-15T23:01:49.271Z,19.67
2023-04-15T23:04:26.614Z,19.67
2023-04-15T23:06:56.110Z,19.63
2023-04-15T23:09:24.196Z,19.64
2023-04-15T23:11:52.363Z,19.59
2023-04-15T23:14:20.750Z,19.59
2023-04-15T23:16:48.702Z,19.56
2023-04-15T23:19:16.706Z,19.57
2023-04-15T23:21:44.846Z,19.51
2023-04-15T23:24:12.933Z,19.50
2023-04-15T23:26:40.970Z,19.50
2023-04-15T23:29:09.392Z,19.47
2023-04-15T23:31:37.904Z,19.47
2023-04-15T23:34:06.644Z,19.44
2023-04-15T23:36:34.721Z,19.42
2023-04-15T23:39:02.823Z,19.41
2023-04-15T23:41:30.866Z,19.39
2023-04-15T23:43:58.934Z,19.37
2023-04-15T23:46:27.380Z,19.37
2023-04-15T23:48:55.590Z,19.37
2023-04-15T23:51:23.565Z,19.35
2023-04-15T23:53:52.555Z,19.31
2023-04-15T23:56:21.027Z,19.32
2023-04-15T23:58:48.996Z,19.32
